Time;durP1;ratioP1;P1;durP2;ratioP2;P2;SDS_P1;SDS_P2;PMS_P1;PMS_P2;Temp;Humidity;BMP_temperature;BMP_pressure;BME280_temperature;BME280_humidity;BME280_pressure;Samples;Min_cycle;Max_cycle;Signal;HPM_P1;HPM_P2
2023/08/04 00:08:55;;;;;;;5.22;2.85;;;;;;;24.37;67.37;100609.56;20873345;28;20053;-70
2023/08/04 00:19:19;;;;;;;5.53;2.97;;;;;;;24.29;67.95;100609.03;20871902;28;20045;-70
2023/08/04 00:29:42;;;;;;;5.28;2.70;;;;;;;24.24;68.06;100605.66;20869253;28;20448;-70
2023/08/04 00:40:07;;;;;;;6.28;2.78;;;;;;;24.10;68.97;100590.03;20866982;28;20044;-70
2023/08/04 00:50:32;;;;;;;8.52;3.53;;;;;;;24.03;70.95;100593.03;20868631;28;20120;-70
2023/08/04 01:00:57;;;;;;;6.85;2.83;;;;;;;23.97;72.42;100588.78;20871767;28;20048;-70
2023/08/04 01:11:23;;;;;;;5.50;3.13;;;;;;;23.77;74.48;100581.53;20884694;28;20056;-70
2023/08/04 01:21:48;;;;;;;7.28;2.80;;;;;;;23.74;77.25;100570.91;20888985;28;20053;-70
2023/08/04 01:32:10;;;;;;;6.47;2.78;;;;;;;23.56;79.17;100576.19;20884400;28;20053;-70
2023/08/04 01:42:34;;;;;;;5.43;3.05;;;;;;;23.48;79.37;100576.50;20904072;28;20053;-70
2023/08/04 01:52:58;;;;;;;5.50;2.38;;;;;;;23.41;79.37;100586.59;20888150;28;20560;-70
2023/08/04 02:03:22;;;;;;;7.72;3.03;;;;;;;23.39;77.48;100584.91;20907060;28;20053;-70
2023/08/04 02:13:44;;;;;;;4.43;2.80;;;;;;;23.24;78.12;100597.16;20878777;28;20049;-69
2023/08/04 02:24:09;;;;;;;6.10;2.58;;;;;;;23.21;78.58;100594.59;20898330;28;20037;-69
2023/08/04 02:34:31;;;;;;;8.05;3.03;;;;;;;23.13;79.57;100598.50;20880243;28;20049;-70
2023/08/04 02:44:56;;;;;;;5.25;2.72;;;;;;;22.90;81.37;100594.03;20894146;28;20164;-70
2023/08/04 02:55:19;;;;;;;7.70;2.80;;;;;;;23.00;79.03;100596.28;20877282;28;20490;-70
2023/08/04 03:05:43;;;;;;;6.88;2.95;;;;;;;22.71;84.44;100596.47;20877609;28;20041;-70
2023/08/04 03:16:06;;;;;;;6.68;3.00;;;;;;;22.67;88.22;100590.31;20900943;28;20102;-70
2023/08/04 03:26:30;;;;;;;7.88;2.90;;;;;;;22.77;87.24;100596.28;20908592;28;20049;-70
2023/08/04 03:36:52;;;;;;;7.85;3.28;;;;;;;22.69;89.65;100589.41;20892564;28;20091;-70
2023/08/04 03:47:18;;;;;;;4.75;2.35;;;;;;;22.90;91.60;100604.78;20891666;28;20053;-70
2023/08/04 03:57:40;;;;;;;9.35;2.97;;;;;;;23.24;93.58;100597.16;20891141;28;20052;-70
2023/08/04 04:08:05;;;;;;;9.50;2.50;;;;;;;23.70;95.37;100617.78;20875761;28;20127;-70
2023/08/04 04:18:28;;;;;;;5.43;2.60;;;;;;;24.24;93.88;100611.06;20886058;28;20041;-70
2023/08/04 04:28:52;;;;;;;6.05;1.92;;;;;;;24.68;87.68;100605.53;20882143;28;20056;-70
2023/08/04 04:39:15;;;;;;;8.00;2.28;;;;;;;25.42;77.83;100605.63;20870398;28;20052;-70
2023/08/04 04:49:39;;;;;;;4.15;2.05;;;;;;;26.14;73.45;100611.06;20866445;28;20515;-69
2023/08/04 05:00:03;;;;;;;4.45;1.90;;;;;;;26.71;68.31;100622.59;20862883;28;20537;-69
2023/08/04 05:10:27;;;;;;;4.80;2.20;;;;;;;27.47;58.60;100626.53;20888461;28;20477;-70
2023/08/04 05:20:50;;;;;;;5.90;1.92;;;;;;;28.25;54.35;100632.91;20893105;28;20047;-70
2023/08/04 05:31:14;;;;;;;5.45;1.90;;;;;;;29.22;53.86;100629.56;20903521;28;20578;-70
2023/08/04 05:41:36;;;;;;;8.60;2.13;;;;;;;30.63;54.67;100627.44;20894019;28;20445;-70
2023/08/04 05:52:02;;;;;;;5.70;2.03;;;;;;;31.89;54.74;100638.28;20901072;28;20896;-70
2023/08/04 06:02:25;;;;;;;4.57;1.90;;;;;;;33.03;47.86;100637.59;20916368;28;20080;-70
2023/08/04 06:12:49;;;;;;;6.25;2.05;;;;;;;33.54;42.62;100637.97;20900053;28;20688;-70
2023/08/04 06:23:11;;;;;;;5.57;1.92;;;;;;;34.24;42.31;100637.66;20900433;28;20394;-70
2023/08/04 06:33:38;;;;;;;4.47;1.90;;;;;;;34.78;44.10;100628.41;20910767;28;20067;-70
2023/08/04 06:44:01;;;;;;;4.80;2.28;;;;;;;35.05;47.62;100627.88;20909599;28;20110;-70
2023/08/04 06:54:25;;;;;;;6.30;2.20;;;;;;;34.97;54.94;100638.63;20845428;28;20056;-70
2023/08/04 07:04:47;;;;;;;4.63;1.77;;;;;;;34.84;58.04;100641.59;20829727;28;20060;-70
2023/08/04 07:15:12;;;;;;;7.10;2.28;;;;;;;35.19;57.22;100639.31;20853475;28;20469;-70
2023/08/04 07:25:34;;;;;;;5.10;2.20;;;;;;;35.43;57.17;100641.81;20856824;28;20053;-70
2023/08/04 07:35:59;;;;;;;4.78;2.03;;;;;;;35.42;49.05;100639.19;20874868;28;20057;-71
2023/08/04 07:46:25;;;;;;;8.13;2.40;;;;;;;35.58;43.58;100623.91;20870967;28;20041;-70
2023/08/04 07:56:49;;;;;;;5.07;1.95;;;;;;;35.82;43.52;100633.69;20854777;28;20065;-70
2023/08/04 08:07:11;;;;;;;4.82;2.15;;;;;;;35.95;43.92;100635.19;20885417;28;20426;-70
2023/08/04 08:17:35;;;;;;;5.20;2.38;;;;;;;35.91;44.93;100633.69;20900711;28;20057;-70
2023/08/04 08:27:58;;;;;;;7.43;1.80;;;;;;;35.81;45.46;100626.47;20887860;28;20045;-70
2023/08/04 08:38:22;;;;;;;5.85;1.90;;;;;;;35.86;45.00;100636.00;20853458;28;20053;-70
2023/08/04 08:48:45;;;;;;;4.30;2.23;;;;;;;36.48;44.31;100625.66;20894969;28;20098;-71
2023/08/04 08:59:10;;;;;;;7.97;2.25;;;;;;;36.50;46.76;100623.63;20869862;28;20053;-70
2023/08/04 09:09:34;;;;;;;6.50;2.00;;;;;;;36.71;47.01;100632.63;20872746;28;20072;-70
2023/08/04 09:19:58;;;;;;;5.65;1.90;;;;;;;36.66;48.89;100630.31;20886975;28;20055;-70
2023/08/04 09:30:21;;;;;;;4.22;2.35;;;;;;;36.68;51.97;100633.81;20888039;28;20055;-70
2023/08/04 09:40:44;;;;;;;6.43;2.35;;;;;;;36.88;59.05;100639.25;20885258;28;20060;-70
2023/08/04 09:51:08;;;;;;;6.70;2.77;;;;;;;36.77;64.54;100643.03;20881259;28;20099;-70
2023/08/04 10:01:24;;;;;;;7.63;2.35;;;;;;;36.85;60.54;100637.66;20890373;28;20537;-70
2023/08/04 10:11:47;;;;;;;6.63;2.60;;;;;;;36.62;61.87;100634.34;20884102;28;20549;-70
2023/08/04 10:21:51;;;;;;;7.03;3.10;;;;;;;36.77;59.40;100629.28;20883181;28;20151;-70
2023/08/04 10:32:17;;;;;;;4.13;1.90;;;;;;;36.98;55.20;100635.47;20886106;28;20094;-70
2023/08/04 10:43:00;;;;;;;7.47;2.92;;;;;;;36.77;57.88;100625.66;20815414;28;20045;-70
2023/08/04 10:53:23;;;;;;;5.95;2.90;;;;;;;36.28;58.97;100620.19;20808656;28;20098;-70
2023/08/04 11:03:51;;;;;;;5.68;2.78;;;;;;;36.46;60.12;100630.44;20892346;28;20484;-70
2023/08/04 11:14:13;;;;;;;8.15;2.90;;;;;;;36.34;59.40;100622.34;20893291;28;20049;-69
2023/08/04 11:24:37;;;;;;;4.90;2.92;;;;;;;36.80;57.60;100629.00;20873525;28;20444;-68
2023/08/04 11:35:00;;;;;;;6.77;2.90;;;;;;;36.63;62.09;100627.81;20841057;28;20095;-69
2023/08/04 11:45:24;;;;;;;3.97;2.03;;;;;;;36.31;65.47;100608.88;20866891;28;20103;-70
2023/08/04 11:55:58;;;;;;;6.55;2.25;;;;;;;36.21;69.21;100607.16;20878973;28;20049;-69
2023/08/04 12:06:23;;;;;;;7.17;2.67;;;;;;;36.04;70.43;100610.59;20868122;28;20594;-69
2023/08/04 12:16:51;;;;;;;5.40;2.40;;;;;;;35.78;72.19;100602.00;20864250;28;20472;-70
2023/08/04 12:27:14;;;;;;;5.05;2.47;;;;;;;35.85;70.16;100597.66;20856819;28;20131;-69
2023/08/04 12:37:37;;;;;;;7.27;2.40;;;;;;;35.89;63.86;100580.78;20871325;28;20465;-69
2023/08/04 12:48:04;;;;;;;6.38;2.97;;;;;;;35.89;63.94;100579.91;20870508;28;20437;-69
2023/08/04 12:58:27;;;;;;;4.93;2.30;;;;;;;36.01;60.96;100587.00;20855463;28;20048;-70
2023/08/04 13:08:51;;;;;;;5.53;2.35;;;;;;;35.95;59.26;100576.56;20934031;28;20079;-69
2023/08/04 13:19:13;;;;;;;5.60;2.20;;;;;;;35.73;57.49;100558.47;20872237;28;20657;-70
2023/08/04 13:29:17;;;;;;;6.95;2.30;;;;;;;35.48;56.84;100557.09;20870274;28;20049;-70
2023/08/04 13:39:40;;;;;;;4.88;1.80;;;;;;;35.32;62.06;100556.75;20872926;28;20515;-70
2023/08/04 13:50:06;;;;;;;9.18;2.22;;;;;;;35.12;66.21;100549.41;20857223;28;20048;-70
2023/08/04 14:00:28;;;;;;;6.65;2.25;;;;;;;34.94;76.61;100543.72;20844123;28;20101;-70
2023/08/04 14:10:52;;;;;;;6.10;2.22;;;;;;;35.06;77.63;100536.25;20849528;28;20422;-70
2023/08/04 14:21:15;;;;;;;5.85;2.45;;;;;;;35.08;80.38;100529.63;20871132;28;20056;-70
2023/08/04 14:31:39;;;;;;;6.35;2.72;;;;;;;35.30;78.07;100525.81;20854844;28;20045;-70
2023/08/04 14:42:01;;;;;;;4.75;2.28;;;;;;;35.33;79.40;100528.28;20869205;28;20045;-70
2023/08/04 14:52:25;;;;;;;6.53;2.00;;;;;;;35.13;80.51;100523.69;20870416;28;20053;-70
2023/08/04 15:02:48;;;;;;;5.30;2.50;;;;;;;34.79;83.59;100521.25;20894396;28;20408;-70
2023/08/04 15:13:12;;;;;;;7.05;2.28;;;;;;;34.20;89.08;100514.66;20908550;28;20102;-71
2023/08/04 15:23:34;;;;;;;4.50;2.20;;;;;;;33.44;94.47;100512.94;20896745;28;20067;-70
2023/08/04 15:33:58;;;;;;;4.72;2.67;;;;;;;32.78;100.00;100501.91;20875063;28;20557;-70
2023/08/04 15:44:21;;;;;;;5.70;2.60;;;;;;;32.38;100.00;100506.06;20900370;28;20160;-71
2023/08/04 15:54:45;;;;;;;7.75;2.83;;;;;;;31.97;100.00;100495.63;20889078;28;20056;-70
2023/08/04 16:05:08;;;;;;;8.40;2.85;;;;;;;31.73;100.00;100501.13;20904610;28;20103;-70
2023/08/04 16:15:32;;;;;;;10.23;3.25;;;;;;;31.45;100.00;100496.84;20890098;28;20672;-70
2023/08/04 16:25:55;;;;;;;5.18;2.65;;;;;;;31.38;100.00;100500.16;20891913;28;20183;-70
2023/08/04 16:36:19;;;;;;;8.70;3.10;;;;;;;31.12;100.00;100499.38;20873843;28;20053;-70
2023/08/04 16:46:42;;;;;;;7.88;3.28;;;;;;;30.95;100.00;100503.31;20888112;28;20053;-70
2023/08/04 16:57:06;;;;;;;8.88;3.55;;;;;;;30.85;100.00;100508.56;20897985;28;20061;-70
2023/08/04 17:07:28;;;;;;;8.88;3.17;;;;;;;30.61;100.00;100513.06;20877060;28;20052;-69
2023/08/04 17:17:53;;;;;;;11.18;3.90;;;;;;;30.20;100.00;100515.97;20914005;28;20102;-70
2023/08/04 17:28:19;;;;;;;10.90;3.88;;;;;;;30.03;100.00;100514.41;20893310;28;20041;-70
2023/08/04 17:38:44;;;;;;;10.80;3.80;;;;;;;29.85;100.00;100504.78;20876292;28;20567;-70
2023/08/04 17:49:07;;;;;;;11.18;4.43;;;;;;;29.75;100.00;100508.22;20891118;28;20060;-71
2023/08/04 17:59:32;;;;;;;13.35;4.50;;;;;;;29.65;100.00;100519.72;20893573;28;20088;-71
2023/08/04 18:09:54;;;;;;;13.55;4.10;;;;;;;29.50;100.00;100518.03;20909951;28;20045;-70
2023/08/04 18:19:58;;;;;;;8.70;4.18;;;;;;;29.42;100.00;100541.28;20890518;28;20052;-71
2023/08/04 18:30:21;;;;;;;10.32;4.68;;;;;;;29.23;100.00;100561.50;20904403;28;20044;-70
2023/08/04 18:40:48;;;;;;;11.73;4.47;;;;;;;29.06;100.00;100574.44;20893801;28;20051;-70
2023/08/04 18:51:11;;;;;;;12.75;4.97;;;;;;;28.84;100.00;100580.34;20878211;28;20045;-71
2023/08/04 19:01:35;;;;;;;11.48;4.43;;;;;;;28.65;100.00;100571.59;20877344;28;20053;-70
2023/08/04 19:11:58;;;;;;;8.32;4.65;;;;;;;28.52;100.00;100582.34;20894949;28;20053;-70
2023/08/04 19:22:02;;;;;;;8.38;4.30;;;;;;;28.41;100.00;100576.69;20892395;28;20681;-69
2023/08/04 19:32:25;;;;;;;11.02;4.63;;;;;;;28.22;100.00;100584.22;20908617;28;20056;-70
2023/08/04 19:42:50;;;;;;;8.38;4.30;;;;;;;28.04;100.00;100578.88;20895646;28;20053;-69
2023/08/04 19:53:12;;;;;;;9.40;4.82;;;;;;;27.91;100.00;100579.69;20914145;28;20680;-70
2023/08/04 20:03:37;;;;;;;8.80;5.80;;;;;;;27.81;100.00;100565.81;20910590;28;20501;-70
2023/08/04 20:14:00;;;;;;;12.65;5.18;;;;;;;27.61;100.00;100556.13;20867918;28;20531;-69
2023/08/04 20:24:24;;;;;;;14.48;5.22;;;;;;;27.54;100.00;100568.28;20919630;28;20136;-69
2023/08/04 20:34:47;;;;;;;12.32;4.97;;;;;;;27.35;100.00;100564.84;20914999;28;20110;-70
2023/08/04 20:45:11;;;;;;;8.50;4.70;;;;;;;27.29;100.00;100570.63;20904390;28;20103;-70
2023/08/04 20:55:14;;;;;;;8.75;5.13;;;;;;;27.06;100.00;100563.75;20919986;28;20106;-70
2023/08/04 21:05:41;;;;;;;10.88;4.85;;;;;;;26.91;100.00;100565.47;20923343;28;20083;-69
2023/08/04 21:16:03;;;;;;;10.57;4.75;;;;;;;26.86;100.00;100563.97;20886906;28;20138;-70
2023/08/04 21:26:28;;;;;;;8.63;4.85;;;;;;;26.75;100.00;100548.31;20919199;28;20046;-70
2023/08/04 21:36:50;;;;;;;11.13;5.32;;;;;;;26.72;100.00;100548.47;20890744;28;20049;-70
2023/08/04 21:47:14;;;;;;;10.15;5.45;;;;;;;26.62;100.00;100547.22;20887047;28;20049;-70
2023/08/04 21:57:37;;;;;;;11.30;5.20;;;;;;;26.51;100.00;100545.09;20902601;28;20501;-70
2023/08/04 22:08:02;;;;;;;8.75;5.47;;;;;;;26.52;100.00;100532.41;20900995;28;20045;-70
2023/08/04 22:18:26;;;;;;;9.57;5.00;;;;;;;26.44;100.00;100529.25;20905788;28;20041;-69
2023/08/04 22:28:50;;;;;;;8.73;4.95;;;;;;;26.49;100.00;100538.00;20929920;28;20186;-70
2023/08/04 22:39:13;;;;;;;11.57;4.35;;;;;;;26.61;100.00;100536.47;20942996;28;20060;-70
2023/08/04 22:49:36;;;;;;;9.73;5.18;;;;;;;26.58;100.00;100527.53;20889329;28;20053;-70
2023/08/04 22:59:59;;;;;;;8.52;4.80;;;;;;;26.57;100.00;100519.53;20885779;28;20053;-70
2023/08/04 23:10:23;;;;;;;8.73;4.68;;;;;;;26.57;100.00;100511.41;20869035;28;20098;-70
2023/08/04 23:20:49;;;;;;;8.93;4.78;;;;;;;26.49;100.00;100519.06;20933535;28;20122;-70
2023/08/04 23:31:13;;;;;;;11.65;4.90;;;;;;;26.59;100.00;100504.91;20907471;28;20055;-70
2023/08/04 23:41:37;;;;;;;9.25;4.47;;;;;;;26.37;100.00;100490.81;20908917;28;20705;-68
2023/08/04 23:52:01;;;;;;;10.57;5.38;;;;;;;26.34;100.00;100499.09;20896696;28;20048;-70
